Uniao da Vitoria, Brazil
Current Conditions -  °F | °C
As of 6:00 PM on Friday 31 Oct 2014 (Local Time) from SBCH Reporting Station
Scattered Clouds Scattered Clouds  
Wind Chill: 81°   Ceiling: Unl
Heat Index: 84°   Visibility: 6mi
Dew Point: 70°   Wind: 5mph
Humidity: 70%   Direction: 210°SSW
Pressure: 29.91"   Gusts: NA
Location:  26.23°S, 51.09°W
Report Text: SBCH 312000Z 21004KT 9999 FEW025 FEW030TCU SCT100 27/21 Q1013
Loading
Personal Weather Stations






























Interactive Weather Map
Tropical Storm Tracking
New forecast layout! Learn more

10-Day Weather Forecast

Advertisements
Track Severe Weather on mobile